sensor_id;sensor_type;location;lat;lon;timestamp;P1;durP1;ratioP1;P2;durP2;ratioP2
72547;SDS011;60570;50.848;6.776;2023-06-14T00:00:26;1113.88;;;999.90;;
72547;SDS011;60570;50.848;6.776;2023-06-14T00:01:27;1117.45;;;999.90;;
72547;SDS011;60570;50.848;6.776;2023-06-14T00:02:29;1114.05;;;999.90;;
72547;SDS011;60570;50.848;6.776;2023-06-14T00:03:30;1118.35;;;999.90;;
72547;SDS011;60570;50.848;6.776;2023-06-14T00:04:32;1118.72;;;999.90;;
72547;SDS011;60570;50.848;6.776;2023-06-14T00:05:33;1117.00;;;999.90;;
72547;SDS011;60570;50.848;6.776;2023-06-14T00:06:38;1113.85;;;999.90;;
72547;SDS011;60570;50.848;6.776;2023-06-14T00:07:43;1117.32;;;999.90;;
72547;SDS011;60570;50.848;6.776;2023-06-14T00:08:43;1116.85;;;999.90;;
72547;SDS011;60570;50.848;6.776;2023-06-14T00:09:45;1116.05;;;999.90;;
72547;SDS011;60570;50.848;6.776;2023-06-14T00:10:46;1116.03;;;999.90;;
72547;SDS011;60570;50.848;6.776;2023-06-14T00:11:48;1113.57;;;999.90;;
72547;SDS011;60570;50.848;6.776;2023-06-14T00:12:49;1114.40;;;999.90;;
72547;SDS011;60570;50.848;6.776;2023-06-14T00:13:50;1118.40;;;999.90;;
72547;SDS011;60570;50.848;6.776;2023-06-14T00:14:51;1114.53;;;999.90;;
72547;SDS011;60570;50.848;6.776;2023-06-14T00:15:53;1115.63;;;999.90;;
72547;SDS011;60570;50.848;6.776;2023-06-14T00:16:55;1116.63;;;999.90;;
72547;SDS011;60570;50.848;6.776;2023-06-14T00:17:58;1117.40;;;999.90;;
72547;SDS011;60570;50.848;6.776;2023-06-14T00:19:00;1118.47;;;999.90;;
72547;SDS011;60570;50.848;6.776;2023-06-14T00:20:05;1117.60;;;999.90;;
72547;SDS011;60570;50.848;6.776;2023-06-14T00:21:08;1114.63;;;999.90;;
72547;SDS011;60570;50.848;6.776;2023-06-14T00:22:10;1117.68;;;999.90;;
72547;SDS011;60570;50.848;6.776;2023-06-14T00:23:12;1112.80;;;999.90;;
72547;SDS011;60570;50.848;6.776;2023-06-14T00:24:13;1115.72;;;999.90;;
72547;SDS011;60570;50.848;6.776;2023-06-14T00:25:14;1117.17;;;999.90;;
72547;SDS011;60570;50.848;6.776;2023-06-14T00:26:16;1118.00;;;999.90;;
72547;SDS011;60570;50.848;6.776;2023-06-14T00:27:17;1115.00;;;999.90;;
72547;SDS011;60570;50.848;6.776;2023-06-14T00:28:19;1115.25;;;999.90;;
72547;SDS011;60570;50.848;6.776;2023-06-14T00:29:20;1114.63;;;999.90;;
72547;SDS011;60570;50.848;6.776;2023-06-14T00:30:22;1117.55;;;999.90;;
72547;SDS011;60570;50.848;6.776;2023-06-14T00:31:22;1111.13;;;999.90;;
72547;SDS011;60570;50.848;6.776;2023-06-14T00:32:24;1117.90;;;999.90;;
72547;SDS011;60570;50.848;6.776;2023-06-14T00:33:26;1117.97;;;999.90;;
72547;SDS011;60570;50.848;6.776;2023-06-14T00:34:27;1116.43;;;999.90;;
72547;SDS011;60570;50.848;6.776;2023-06-14T00:35:28;1111.70;;;999.90;;
72547;SDS011;60570;50.848;6.776;2023-06-14T00:36:30;1116.43;;;999.90;;
72547;SDS011;60570;50.848;6.776;2023-06-14T00:37:30;1113.50;;;999.90;;
72547;SDS011;60570;50.848;6.776;2023-06-14T00:38:33;1118.07;;;999.90;;
72547;SDS011;60570;50.848;6.776;2023-06-14T00:39:34;1113.63;;;999.90;;
72547;SDS011;60570;50.848;6.776;2023-06-14T00:40:36;1115.07;;;999.90;;
72547;SDS011;60570;50.848;6.776;2023-06-14T00:41:36;1115.70;;;999.90;;
72547;SDS011;60570;50.848;6.776;2023-06-14T00:42:38;1116.07;;;999.90;;
72547;SDS011;60570;50.848;6.776;2023-06-14T00:43:39;1113.50;;;999.90;;
72547;SDS011;60570;50.848;6.776;2023-06-14T00:44:40;1116.28;;;999.90;;
72547;SDS011;60570;50.848;6.776;2023-06-14T00:45:41;1116.43;;;999.90;;
72547;SDS011;60570;50.848;6.776;2023-06-14T00:46:43;1115.97;;;999.90;;
72547;SDS011;60570;50.848;6.776;2023-06-14T00:47:44;1115.18;;;999.90;;
72547;SDS011;60570;50.848;6.776;2023-06-14T00:48:47;1115.10;;;999.90;;
72547;SDS011;60570;50.848;6.776;2023-06-14T00:49:49;1118.75;;;999.90;;
72547;SDS011;60570;50.848;6.776;2023-06-14T00:50:52;1116.85;;;999.90;;
72547;SDS011;60570;50.848;6.776;2023-06-14T00:51:53;1114.43;;;999.90;;
72547;SDS011;60570;50.848;6.776;2023-06-14T00:52:54;1115.13;;;999.90;;
72547;SDS011;60570;50.848;6.776;2023-06-14T00:53:57;1114.28;;;999.90;;
72547;SDS011;60570;50.848;6.776;2023-06-14T00:54:58;1112.93;;;999.90;;
72547;SDS011;60570;50.848;6.776;2023-06-14T00:56:00;1111.07;;;999.90;;
72547;SDS011;60570;50.848;6.776;2023-06-14T00:57:02;1115.60;;;999.90;;
72547;SDS011;60570;50.848;6.776;2023-06-14T00:58:03;1115.18;;;999.90;;
72547;SDS011;60570;50.848;6.776;2023-06-14T00:59:04;1115.28;;;999.90;;
72547;SDS011;60570;50.848;6.776;2023-06-14T01:00:06;1114.47;;;999.90;;
72547;SDS011;60570;50.848;6.776;2023-06-14T01:01:09;1116.55;;;999.90;;
72547;SDS011;60570;50.848;6.776;2023-06-14T01:02:10;1112.03;;;999.90;;
72547;SDS011;60570;50.848;6.776;2023-06-14T01:03:15;1113.93;;;999.90;;
72547;SDS011;60570;50.848;6.776;2023-06-14T01:04:22;1115.18;;;999.90;;
72547;SDS011;60570;50.848;6.776;2023-06-14T01:05:23;1114.82;;;999.90;;
72547;SDS011;60570;50.848;6.776;2023-06-14T01:07:33;1109.20;;;999.90;;
72547;SDS011;60570;50.848;6.776;2023-06-14T01:08:45;1112.68;;;999.90;;
72547;SDS011;60570;50.848;6.776;2023-06-14T01:09:58;1116.15;;;999.90;;
72547;SDS011;60570;50.848;6.776;2023-06-14T01:11:07;1111.85;;;999.90;;
72547;SDS011;60570;50.848;6.776;2023-06-14T01:12:13;1114.82;;;999.90;;
72547;SDS011;60570;50.848;6.776;2023-06-14T01:13:19;1111.72;;;999.90;;
72547;SDS011;60570;50.848;6.776;2023-06-14T01:14:22;1112.95;;;999.90;;
72547;SDS011;60570;50.848;6.776;2023-06-14T01:15:25;1110.60;;;999.90;;
72547;SDS011;60570;50.848;6.776;2023-06-14T01:16:31;1116.55;;;999.90;;
72547;SDS011;60570;50.848;6.776;2023-06-14T01:17:32;1113.05;;;999.90;;
72547;SDS011;60570;50.848;6.776;2023-06-14T01:18:35;1115.70;;;999.90;;
72547;SDS011;60570;50.848;6.776;2023-06-14T01:19:37;1112.25;;;999.90;;
72547;SDS011;60570;50.848;6.776;2023-06-14T01:20:38;1115.07;;;999.90;;
72547;SDS011;60570;50.848;6.776;2023-06-14T01:21:40;1112.20;;;999.90;;
72547;SDS011;60570;50.848;6.776;2023-06-14T01:22:48;1112.07;;;999.90;;
72547;SDS011;60570;50.848;6.776;2023-06-14T01:23:51;1115.50;;;999.90;;
72547;SDS011;60570;50.848;6.776;2023-06-14T01:24:54;1115.28;;;999.90;;
72547;SDS011;60570;50.848;6.776;2023-06-14T01:25:55;1113.60;;;999.90;;
72547;SDS011;60570;50.848;6.776;2023-06-14T01:26:57;1114.40;;;999.90;;
72547;SDS011;60570;50.848;6.776;2023-06-14T01:28:00;1116.10;;;999.90;;
72547;SDS011;60570;50.848;6.776;2023-06-14T01:29:04;1110.50;;;999.90;;
72547;SDS011;60570;50.848;6.776;2023-06-14T01:30:07;1116.20;;;999.90;;
72547;SDS011;60570;50.848;6.776;2023-06-14T01:31:11;1115.30;;;999.90;;
72547;SDS011;60570;50.848;6.776;2023-06-14T01:32:12;1114.72;;;999.90;;
72547;SDS011;60570;50.848;6.776;2023-06-14T01:33:15;1115.78;;;999.90;;
72547;SDS011;60570;50.848;6.776;2023-06-14T01:34:18;1113.60;;;999.90;;
72547;SDS011;60570;50.848;6.776;2023-06-14T01:35:20;1112.95;;;999.90;;
72547;SDS011;60570;50.848;6.776;2023-06-14T01:36:21;1113.43;;;999.90;;
72547;SDS011;60570;50.848;6.776;2023-06-14T01:37:26;1115.43;;;999.90;;
72547;SDS011;60570;50.848;6.776;2023-06-14T01:38:28;1110.77;;;999.90;;
72547;SDS011;60570;50.848;6.776;2023-06-14T01:39:31;1110.32;;;999.90;;
72547;SDS011;60570;50.848;6.776;2023-06-14T01:40:33;1114.85;;;999.90;;
72547;SDS011;60570;50.848;6.776;2023-06-14T01:41:36;1112.68;;;999.90;;
72547;SDS011;60570;50.848;6.776;2023-06-14T01:42:37;1110.00;;;999.90;;
72547;SDS011;60570;50.848;6.776;2023-06-14T01:43:39;1110.57;;;999.90;;
72547;SDS011;60570;50.848;6.776;2023-06-14T01:44:42;1117.32;;;999.90;;
72547;SDS011;60570;50.848;6.776;2023-06-14T01:45:45;1114.45;;;999.90;;
72547;SDS011;60570;50.848;6.776;2023-06-14T01:46:48;1115.75;;;999.90;;
72547;SDS011;60570;50.848;6.776;2023-06-14T01:47:50;1112.85;;;999.90;;
72547;SDS011;60570;50.848;6.776;2023-06-14T01:48:52;1114.50;;;999.90;;
72547;SDS011;60570;50.848;6.776;2023-06-14T01:49:54;1113.75;;;999.90;;
72547;SDS011;60570;50.848;6.776;2023-06-14T01:50:55;1113.50;;;999.90;;
72547;SDS011;60570;50.848;6.776;2023-06-14T01:51:56;1114.13;;;999.90;;
72547;SDS011;60570;50.848;6.776;2023-06-14T01:52:57;1111.43;;;999.90;;
72547;SDS011;60570;50.848;6.776;2023-06-14T01:54:00;1115.75;;;999.90;;
72547;SDS011;60570;50.848;6.776;2023-06-14T01:55:01;1111.15;;;999.90;;
72547;SDS011;60570;50.848;6.776;2023-06-14T01:56:03;1115.00;;;999.90;;
72547;SDS011;60570;50.848;6.776;2023-06-14T01:57:05;1115.60;;;999.90;;
72547;SDS011;60570;50.848;6.776;2023-06-14T01:58:07;1113.60;;;999.90;;
72547;SDS011;60570;50.848;6.776;2023-06-14T01:59:08;1116.18;;;999.90;;
72547;SDS011;60570;50.848;6.776;2023-06-14T02:00:11;1114.85;;;999.90;;
72547;SDS011;60570;50.848;6.776;2023-06-14T02:01:12;1113.90;;;999.90;;
72547;SDS011;60570;50.848;6.776;2023-06-14T02:02:16;1115.30;;;999.90;;
72547;SDS011;60570;50.848;6.776;2023-06-14T02:03:17;1114.87;;;999.90;;
72547;SDS011;60570;50.848;6.776;2023-06-14T02:04:19;1116.15;;;999.90;;
72547;SDS011;60570;50.848;6.776;2023-06-14T02:05:20;1112.40;;;999.90;;
72547;SDS011;60570;50.848;6.776;2023-06-14T02:06:21;1113.20;;;999.90;;
72547;SDS011;60570;50.848;6.776;2023-06-14T02:07:22;1111.87;;;999.90;;
72547;SDS011;60570;50.848;6.776;2023-06-14T02:08:24;1116.20;;;999.90;;
72547;SDS011;60570;50.848;6.776;2023-06-14T02:09:28;1113.25;;;999.90;;
72547;SDS011;60570;50.848;6.776;2023-06-14T02:10:30;1115.40;;;999.90;;
72547;SDS011;60570;50.848;6.776;2023-06-14T02:11:31;1117.07;;;999.90;;
72547;SDS011;60570;50.848;6.776;2023-06-14T02:12:32;1115.47;;;999.90;;
72547;SDS011;60570;50.848;6.776;2023-06-14T02:13:33;1112.13;;;999.90;;
72547;SDS011;60570;50.848;6.776;2023-06-14T02:14:35;1113.65;;;999.90;;
72547;SDS011;60570;50.848;6.776;2023-06-14T02:15:36;1110.77;;;999.90;;
72547;SDS011;60570;50.848;6.776;2023-06-14T02:16:37;1115.70;;;999.90;;
72547;SDS011;60570;50.848;6.776;2023-06-14T02:17:39;1113.65;;;999.90;;
72547;SDS011;60570;50.848;6.776;2023-06-14T02:18:40;1117.40;;;999.90;;
72547;SDS011;60570;50.848;6.776;2023-06-14T02:19:41;1114.57;;;999.90;;
72547;SDS011;60570;50.848;6.776;2023-06-14T02:20:43;1114.35;;;999.90;;
72547;SDS011;60570;50.848;6.776;2023-06-14T02:21:44;1107.67;;;999.90;;
72547;SDS011;60570;50.848;6.776;2023-06-14T02:22:46;1110.03;;;999.90;;
72547;SDS011;60570;50.848;6.776;2023-06-14T02:23:47;1111.33;;;999.90;;
72547;SDS011;60570;50.848;6.776;2023-06-14T02:24:50;1115.40;;;999.90;;
72547;SDS011;60570;50.848;6.776;2023-06-14T02:25:50;1113.25;;;999.90;;
72547;SDS011;60570;50.848;6.776;2023-06-14T02:26:52;1115.80;;;999.90;;
72547;SDS011;60570;50.848;6.776;2023-06-14T02:27:53;1113.03;;;999.90;;
72547;SDS011;60570;50.848;6.776;2023-06-14T02:28:56;1114.15;;;999.90;;
72547;SDS011;60570;50.848;6.776;2023-06-14T02:29:56;1112.53;;;999.90;;
72547;SDS011;60570;50.848;6.776;2023-06-14T02:30:58;1116.43;;;999.90;;
72547;SDS011;60570;50.848;6.776;2023-06-14T02:31:58;1113.57;;;999.90;;
72547;SDS011;60570;50.848;6.776;2023-06-14T02:33:00;1113.97;;;999.90;;
72547;SDS011;60570;50.848;6.776;2023-06-14T02:34:01;1112.13;;;999.90;;
72547;SDS011;60570;50.848;6.776;2023-06-14T02:35:03;1114.70;;;999.90;;
72547;SDS011;60570;50.848;6.776;2023-06-14T02:36:05;1116.50;;;999.90;;
72547;SDS011;60570;50.848;6.776;2023-06-14T02:37:07;1118.47;;;999.90;;
72547;SDS011;60570;50.848;6.776;2023-06-14T02:38:08;1114.27;;;999.90;;
72547;SDS011;60570;50.848;6.776;2023-06-14T02:39:09;1115.25;;;999.90;;
72547;SDS011;60570;50.848;6.776;2023-06-14T02:40:12;1108.00;;;999.90;;
72547;SDS011;60570;50.848;6.776;2023-06-14T02:41:13;1115.22;;;999.90;;
72547;SDS011;60570;50.848;6.776;2023-06-14T02:42:14;1109.10;;;999.90;;
72547;SDS011;60570;50.848;6.776;2023-06-14T02:43:16;1115.03;;;999.90;;
72547;SDS011;60570;50.848;6.776;2023-06-14T02:44:17;1109.93;;;999.90;;
72547;SDS011;60570;50.848;6.776;2023-06-14T02:45:19;1109.63;;;999.90;;
72547;SDS011;60570;50.848;6.776;2023-06-14T02:46:21;1116.30;;;999.90;;
72547;SDS011;60570;50.848;6.776;2023-06-14T02:47:22;1112.68;;;999.90;;
72547;SDS011;60570;50.848;6.776;2023-06-14T02:48:24;1114.85;;;999.90;;
72547;SDS011;60570;50.848;6.776;2023-06-14T02:49:26;1112.70;;;999.90;;
72547;SDS011;60570;50.848;6.776;2023-06-14T02:50:27;1112.53;;;999.90;;
72547;SDS011;60570;50.848;6.776;2023-06-14T02:51:30;1113.15;;;999.90;;
72547;SDS011;60570;50.848;6.776;2023-06-14T02:52:30;1112.37;;;999.90;;
72547;SDS011;60570;50.848;6.776;2023-06-14T02:53:33;1114.25;;;999.90;;
72547;SDS011;60570;50.848;6.776;2023-06-14T02:54:34;1116.97;;;999.90;;
72547;SDS011;60570;50.848;6.776;2023-06-14T02:55:37;1114.10;;;999.90;;
72547;SDS011;60570;50.848;6.776;2023-06-14T02:56:39;1115.20;;;999.90;;
72547;SDS011;60570;50.848;6.776;2023-06-14T02:57:41;1116.70;;;999.90;;
72547;SDS011;60570;50.848;6.776;2023-06-14T02:58:42;1112.77;;;999.90;;
72547;SDS011;60570;50.848;6.776;2023-06-14T02:59:44;1114.18;;;999.90;;
72547;SDS011;60570;50.848;6.776;2023-06-14T03:00:44;1110.10;;;999.90;;
72547;SDS011;60570;50.848;6.776;2023-06-14T03:01:46;1114.00;;;999.90;;
72547;SDS011;60570;50.848;6.776;2023-06-14T03:02:47;1106.70;;;999.90;;
72547;SDS011;60570;50.848;6.776;2023-06-14T03:03:49;1112.47;;;999.90;;
72547;SDS011;60570;50.848;6.776;2023-06-14T03:04:49;1112.63;;;999.90;;
72547;SDS011;60570;50.848;6.776;2023-06-14T03:05:51;1115.22;;;999.90;;
72547;SDS011;60570;50.848;6.776;2023-06-14T03:06:52;1112.40;;;999.90;;
72547;SDS011;60570;50.848;6.776;2023-06-14T03:07:54;1115.03;;;999.90;;
72547;SDS011;60570;50.848;6.776;2023-06-14T03:08:54;1112.10;;;999.90;;
72547;SDS011;60570;50.848;6.776;2023-06-14T03:09:57;1113.80;;;999.90;;
72547;SDS011;60570;50.848;6.776;2023-06-14T03:10:59;1109.80;;;999.90;;
72547;SDS011;60570;50.848;6.776;2023-06-14T03:12:02;1113.80;;;999.90;;
72547;SDS011;60570;50.848;6.776;2023-06-14T03:13:03;1113.80;;;999.90;;
72547;SDS011;60570;50.848;6.776;2023-06-14T03:14:05;1111.03;;;999.90;;
72547;SDS011;60570;50.848;6.776;2023-06-14T03:15:07;1113.90;;;999.90;;
72547;SDS011;60570;50.848;6.776;2023-06-14T03:16:11;1111.63;;;999.90;;
72547;SDS011;60570;50.848;6.776;2023-06-14T03:17:11;1108.60;;;999.90;;
72547;SDS011;60570;50.848;6.776;2023-06-14T03:18:13;1114.18;;;999.90;;
72547;SDS011;60570;50.848;6.776;2023-06-14T03:20:17;1107.70;;;999.90;;
72547;SDS011;60570;50.848;6.776;2023-06-14T03:21:17;1108.87;;;999.90;;
72547;SDS011;60570;50.848;6.776;2023-06-14T03:22:20;1106.53;;;999.90;;
72547;SDS011;60570;50.848;6.776;2023-06-14T03:23:22;1109.78;;;999.90;;
72547;SDS011;60570;50.848;6.776;2023-06-14T03:24:24;1106.50;;;999.90;;
72547;SDS011;60570;50.848;6.776;2023-06-14T03:25:24;1107.63;;;999.90;;
72547;SDS011;60570;50.848;6.776;2023-06-14T03:26:30;1112.50;;;999.90;;
72547;SDS011;60570;50.848;6.776;2023-06-14T03:27:31;1105.57;;;999.72;;
72547;SDS011;60570;50.848;6.776;2023-06-14T03:28:33;1111.30;;;999.90;;
72547;SDS011;60570;50.848;6.776;2023-06-14T03:29:34;1112.13;;;999.90;;
72547;SDS011;60570;50.848;6.776;2023-06-14T03:30:35;1112.90;;;999.90;;
72547;SDS011;60570;50.848;6.776;2023-06-14T03:31:36;1107.87;;;999.90;;
72547;SDS011;60570;50.848;6.776;2023-06-14T03:32:41;1111.03;;;999.90;;
72547;SDS011;60570;50.848;6.776;2023-06-14T03:33:42;1108.83;;;999.90;;
72547;SDS011;60570;50.848;6.776;2023-06-14T03:34:43;1108.50;;;999.90;;
72547;SDS011;60570;50.848;6.776;2023-06-14T03:35:45;1110.75;;;999.90;;
72547;SDS011;60570;50.848;6.776;2023-06-14T03:36:47;1112.07;;;999.90;;
72547;SDS011;60570;50.848;6.776;2023-06-14T03:37:49;1110.18;;;999.90;;
72547;SDS011;60570;50.848;6.776;2023-06-14T03:38:51;1112.65;;;999.90;;
72547;SDS011;60570;50.848;6.776;2023-06-14T03:39:53;1111.45;;;999.90;;
72547;SDS011;60570;50.848;6.776;2023-06-14T03:40:54;1111.00;;;999.90;;
72547;SDS011;60570;50.848;6.776;2023-06-14T03:41:57;1107.53;;;999.90;;
72547;SDS011;60570;50.848;6.776;2023-06-14T03:42:58;1108.85;;;999.90;;
72547;SDS011;60570;50.848;6.776;2023-06-14T03:44:00;1111.07;;;999.90;;
72547;SDS011;60570;50.848;6.776;2023-06-14T03:45:00;1111.50;;;999.90;;
72547;SDS011;60570;50.848;6.776;2023-06-14T03:46:02;1107.93;;;999.90;;
72547;SDS011;60570;50.848;6.776;2023-06-14T03:47:03;1107.60;;;999.90;;
72547;SDS011;60570;50.848;6.776;2023-06-14T03:48:05;1114.03;;;999.90;;
72547;SDS011;60570;50.848;6.776;2023-06-14T03:49:06;1114.22;;;999.90;;
72547;SDS011;60570;50.848;6.776;2023-06-14T03:50:08;1108.75;;;999.90;;
72547;SDS011;60570;50.848;6.776;2023-06-14T03:51:10;1112.40;;;999.90;;
72547;SDS011;60570;50.848;6.776;2023-06-14T03:52:12;1109.40;;;999.90;;
72547;SDS011;60570;50.848;6.776;2023-06-14T03:53:14;1113.18;;;999.90;;
72547;SDS011;60570;50.848;6.776;2023-06-14T03:54:15;1111.90;;;999.90;;
72547;SDS011;60570;50.848;6.776;2023-06-14T03:55:16;1110.20;;;999.90;;
72547;SDS011;60570;50.848;6.776;2023-06-14T03:56:18;1112.28;;;999.90;;
72547;SDS011;60570;50.848;6.776;2023-06-14T03:57:20;1109.43;;;999.90;;
72547;SDS011;60570;50.848;6.776;2023-06-14T03:58:22;1111.07;;;999.90;;
72547;SDS011;60570;50.848;6.776;2023-06-14T03:59:22;1107.67;;;999.90;;
72547;SDS011;60570;50.848;6.776;2023-06-14T04:00:25;1111.72;;;999.90;;
72547;SDS011;60570;50.848;6.776;2023-06-14T04:01:27;1112.15;;;999.90;;
72547;SDS011;60570;50.848;6.776;2023-06-14T04:02:32;1112.50;;;999.90;;
72547;SDS011;60570;50.848;6.776;2023-06-14T04:03:33;1106.97;;;999.90;;
72547;SDS011;60570;50.848;6.776;2023-06-14T04:04:35;1110.32;;;999.90;;
72547;SDS011;60570;50.848;6.776;2023-06-14T04:05:36;1108.93;;;999.90;;
72547;SDS011;60570;50.848;6.776;2023-06-14T04:06:37;1108.45;;;999.90;;
72547;SDS011;60570;50.848;6.776;2023-06-14T04:07:38;1107.07;;;999.90;;
72547;SDS011;60570;50.848;6.776;2023-06-14T04:08:44;1113.28;;;999.90;;
72547;SDS011;60570;50.848;6.776;2023-06-14T04:09:45;1103.53;;;999.53;;
72547;SDS011;60570;50.848;6.776;2023-06-14T04:10:48;1106.60;;;999.90;;
72547;SDS011;60570;50.848;6.776;2023-06-14T04:11:48;1106.87;;;999.90;;
72547;SDS011;60570;50.848;6.776;2023-06-14T04:12:51;1109.30;;;999.90;;
72547;SDS011;60570;50.848;6.776;2023-06-14T04:13:52;1108.80;;;999.90;;
72547;SDS011;60570;50.848;6.776;2023-06-14T04:14:56;1109.47;;;999.90;;
72547;SDS011;60570;50.848;6.776;2023-06-14T04:15:57;1109.30;;;999.90;;
72547;SDS011;60570;50.848;6.776;2023-06-14T04:16:58;1111.70;;;999.90;;
72547;SDS011;60570;50.848;6.776;2023-06-14T04:17:59;1110.00;;;999.90;;
72547;SDS011;60570;50.848;6.776;2023-06-14T04:19:01;1110.07;;;999.90;;
72547;SDS011;60570;50.848;6.776;2023-06-14T04:20:02;1107.70;;;999.90;;
72547;SDS011;60570;50.848;6.776;2023-06-14T04:21:06;1111.35;;;999.90;;
72547;SDS011;60570;50.848;6.776;2023-06-14T04:22:08;1108.32;;;999.90;;
72547;SDS011;60570;50.848;6.776;2023-06-14T04:23:11;1107.95;;;999.90;;
72547;SDS011;60570;50.848;6.776;2023-06-14T04:24:13;1109.15;;;999.90;;
72547;SDS011;60570;50.848;6.776;2023-06-14T04:25:15;1110.10;;;999.90;;
72547;SDS011;60570;50.848;6.776;2023-06-14T04:26:15;1108.43;;;999.90;;
72547;SDS011;60570;50.848;6.776;2023-06-14T04:27:17;1110.32;;;999.90;;
72547;SDS011;60570;50.848;6.776;2023-06-14T04:28:23;1105.25;;;999.67;;
72547;SDS011;60570;50.848;6.776;2023-06-14T04:29:27;1108.68;;;999.90;;
72547;SDS011;60570;50.848;6.776;2023-06-14T04:30:29;1103.53;;;999.28;;
72547;SDS011;60570;50.848;6.776;2023-06-14T04:31:31;1107.15;;;999.90;;
72547;SDS011;60570;50.848;6.776;2023-06-14T04:32:33;1109.30;;;999.90;;
72547;SDS011;60570;50.848;6.776;2023-06-14T04:33:39;1107.88;;;999.90;;
72547;SDS011;60570;50.848;6.776;2023-06-14T04:34:43;1108.80;;;999.90;;
72547;SDS011;60570;50.848;6.776;2023-06-14T04:35:44;1107.88;;;999.90;;
72547;SDS011;60570;50.848;6.776;2023-06-14T04:36:47;1106.05;;;999.75;;
72547;SDS011;60570;50.848;6.776;2023-06-14T04:37:53;1108.88;;;999.90;;
72547;SDS011;60570;50.848;6.776;2023-06-14T04:38:54;1106.00;;;999.90;;
72547;SDS011;60570;50.848;6.776;2023-06-14T04:39:55;1107.40;;;999.90;;
72547;SDS011;60570;50.848;6.776;2023-06-14T04:40:56;1104.32;;;999.42;;
72547;SDS011;60570;50.848;6.776;2023-06-14T04:42:01;1107.13;;;999.90;;
72547;SDS011;60570;50.848;6.776;2023-06-14T04:43:03;1103.75;;;999.40;;
72547;SDS011;60570;50.848;6.776;2023-06-14T04:44:08;1107.57;;;999.90;;
72547;SDS011;60570;50.848;6.776;2023-06-14T04:45:10;1104.97;;;999.70;;
72547;SDS011;60570;50.848;6.776;2023-06-14T04:46:13;1108.00;;;999.90;;
72547;SDS011;60570;50.848;6.776;2023-06-14T04:47:14;1107.60;;;999.90;;
72547;SDS011;60570;50.848;6.776;2023-06-14T04:48:17;1107.22;;;999.90;;
72547;SDS011;60570;50.848;6.776;2023-06-14T04:49:19;1107.50;;;999.90;;
72547;SDS011;60570;50.848;6.776;2023-06-14T04:50:23;1107.57;;;999.90;;
72547;SDS011;60570;50.848;6.776;2023-06-14T04:51:24;1104.77;;;999.90;;
72547;SDS011;60570;50.848;6.776;2023-06-14T04:52:29;1108.60;;;999.90;;
72547;SDS011;60570;50.848;6.776;2023-06-14T04:53:30;1103.70;;;999.47;;
72547;SDS011;60570;50.848;6.776;2023-06-14T04:54:32;1107.18;;;999.90;;
72547;SDS011;60570;50.848;6.776;2023-06-14T04:56:36;1101.68;;;999.08;;
72547;SDS011;60570;50.848;6.776;2023-06-14T04:57:37;1103.25;;;999.45;;
72547;SDS011;60570;50.848;6.776;2023-06-14T04:58:40;1105.07;;;999.55;;
72547;SDS011;60570;50.848;6.776;2023-06-14T04:59:42;1106.10;;;999.90;;
72547;SDS011;60570;50.848;6.776;2023-06-14T05:00:44;1106.28;;;999.90;;
72547;SDS011;60570;50.848;6.776;2023-06-14T05:01:45;1102.83;;;999.57;;
72547;SDS011;60570;50.848;6.776;2023-06-14T05:02:48;1108.30;;;999.90;;
72547;SDS011;60570;50.848;6.776;2023-06-14T05:03:49;1110.80;;;999.90;;
72547;SDS011;60570;50.848;6.776;2023-06-14T05:04:51;1108.60;;;999.90;;
72547;SDS011;60570;50.848;6.776;2023-06-14T05:05:52;1109.50;;;999.90;;
72547;SDS011;60570;50.848;6.776;2023-06-14T05:06:54;1104.95;;;999.75;;
72547;SDS011;60570;50.848;6.776;2023-06-14T05:07:55;1107.17;;;999.90;;
72547;SDS011;60570;50.848;6.776;2023-06-14T05:08:56;1108.53;;;999.90;;
72547;SDS011;60570;50.848;6.776;2023-06-14T05:09:57;1105.33;;;999.90;;
72547;SDS011;60570;50.848;6.776;2023-06-14T05:10:59;1104.57;;;999.40;;
72547;SDS011;60570;50.848;6.776;2023-06-14T05:12:00;1106.97;;;999.90;;
72547;SDS011;60570;50.848;6.776;2023-06-14T05:13:01;1106.95;;;999.90;;
72547;SDS011;60570;50.848;6.776;2023-06-14T05:14:02;1108.33;;;999.90;;
72547;SDS011;60570;50.848;6.776;2023-06-14T05:15:05;1105.30;;;999.78;;
72547;SDS011;60570;50.848;6.776;2023-06-14T05:16:09;1106.60;;;999.90;;
72547;SDS011;60570;50.848;6.776;2023-06-14T05:17:11;1108.80;;;999.90;;
72547;SDS011;60570;50.848;6.776;2023-06-14T05:18:12;1107.17;;;999.90;;
72547;SDS011;60570;50.848;6.776;2023-06-14T05:19:15;1109.30;;;999.90;;
72547;SDS011;60570;50.848;6.776;2023-06-14T05:20:18;1108.00;;;999.90;;
72547;SDS011;60570;50.848;6.776;2023-06-14T05:21:19;1106.10;;;999.78;;
72547;SDS011;60570;50.848;6.776;2023-06-14T05:22:21;1107.00;;;999.90;;
72547;SDS011;60570;50.848;6.776;2023-06-14T05:23:22;1108.00;;;999.90;;
72547;SDS011;60570;50.848;6.776;2023-06-14T05:24:24;1108.95;;;999.90;;
72547;SDS011;60570;50.848;6.776;2023-06-14T05:25:25;1105.97;;;999.90;;
72547;SDS011;60570;50.848;6.776;2023-06-14T05:26:28;1107.88;;;999.90;;
72547;SDS011;60570;50.848;6.776;2023-06-14T05:27:29;1103.17;;;999.50;;
72547;SDS011;60570;50.848;6.776;2023-06-14T05:28:30;1108.20;;;999.90;;
72547;SDS011;60570;50.848;6.776;2023-06-14T05:29:32;1107.90;;;999.90;;
72547;SDS011;60570;50.848;6.776;2023-06-14T05:30:34;1105.77;;;999.90;;
72547;SDS011;60570;50.848;6.776;2023-06-14T05:31:36;1105.47;;;999.72;;
72547;SDS011;60570;50.848;6.776;2023-06-14T05:32:37;1104.40;;;999.63;;
72547;SDS011;60570;50.848;6.776;2023-06-14T05:33:38;1106.47;;;999.90;;
72547;SDS011;60570;50.848;6.776;2023-06-14T05:34:40;1103.90;;;999.63;;
72547;SDS011;60570;50.848;6.776;2023-06-14T05:35:41;1107.97;;;999.90;;
72547;SDS011;60570;50.848;6.776;2023-06-14T05:36:42;1104.50;;;999.90;;
72547;SDS011;60570;50.848;6.776;2023-06-14T05:37:44;1106.47;;;999.90;;
72547;SDS011;60570;50.848;6.776;2023-06-14T05:38:45;1103.32;;;999.28;;
72547;SDS011;60570;50.848;6.776;2023-06-14T05:39:46;1106.13;;;999.90;;
72547;SDS011;60570;50.848;6.776;2023-06-14T05:40:47;1105.83;;;999.90;;
72547;SDS011;60570;50.848;6.776;2023-06-14T05:41:49;1108.60;;;999.90;;
72547;SDS011;60570;50.848;6.776;2023-06-14T05:42:50;1107.20;;;999.90;;
72547;SDS011;60570;50.848;6.776;2023-06-14T05:43:51;1107.22;;;999.90;;
72547;SDS011;60570;50.848;6.776;2023-06-14T05:44:52;1107.83;;;999.90;;
72547;SDS011;60570;50.848;6.776;2023-06-14T05:45:57;1107.07;;;999.90;;
72547;SDS011;60570;50.848;6.776;2023-06-14T05:46:57;1101.95;;;998.95;;
72547;SDS011;60570;50.848;6.776;2023-06-14T05:47:59;1107.82;;;999.90;;
72547;SDS011;60570;50.848;6.776;2023-06-14T05:49:00;1102.23;;;999.30;;
72547;SDS011;60570;50.848;6.776;2023-06-14T05:50:01;1106.88;;;999.90;;